createdAt,value
2022-08-28T00:00:23.869Z,1019.69
2022-08-28T00:01:27.429Z,1019.69
2022-08-28T00:02:31.025Z,1019.69
2022-08-28T00:04:09.514Z,1019.69
2022-08-28T00:05:13.378Z,1019.69
2022-08-28T00:06:16.816Z,1019.69
2022-08-28T00:07:58.426Z,1019.69
2022-08-28T00:09:01.708Z,1019.69
2022-08-28T00:10:05.670Z,1019.69
2022-08-28T00:11:41.362Z,1019.69
2022-08-28T00:12:44.855Z,1019.69
2022-08-28T00:13:48.312Z,1019.69
2022-08-28T00:15:26.623Z,1019.69
2022-08-28T00:16:32.480Z,1019.69
2022-08-28T00:17:36.046Z,1019.69
2022-08-28T00:19:12.867Z,1019.69
2022-08-28T00:20:16.209Z,1019.69
2022-08-28T00:21:19.515Z,1019.69
2022-08-28T00:22:55.105Z,1019.69
2022-08-28T00:23:58.374Z,1019.69
2022-08-28T00:25:06.430Z,1019.69
2022-08-28T00:26:41.812Z,1019.69
2022-08-28T00:27:45.211Z,1019.69
2022-08-28T00:28:55.101Z,1019.69
2022-08-28T00:30:30.696Z,1019.69
2022-08-28T00:31:35.052Z,1019.69
2022-08-28T00:32:38.647Z,1019.69
2022-08-28T00:34:13.808Z,1019.69
2022-08-28T00:35:26.119Z,1019.69
2022-08-28T00:36:29.491Z,1019.69
2022-08-28T00:38:05.739Z,1019.69
2022-08-28T00:39:12.946Z,1019.69
2022-08-28T00:40:28.922Z,1019.69
2022-08-28T00:42:18.130Z,1019.69
2022-08-28T00:43:21.553Z,1019.69
2022-08-28T00:44:24.839Z,1019.69
2022-08-28T00:46:00.179Z,1019.69
2022-08-28T00:47:05.016Z,1019.69
2022-08-28T00:48:09.881Z,1019.69
2022-08-28T00:49:45.339Z,1019.69
2022-08-28T00:50:48.778Z,1019.69
2022-08-28T00:51:58.216Z,1019.69
2022-08-28T00:53:41.553Z,1019.69
2022-08-28T00:55:10.887Z,1019.69
2022-08-28T00:56:21.687Z,1019.69
2022-08-28T00:57:57.142Z,1019.69
2022-08-28T00:59:00.930Z,1019.69
2022-08-28T01:00:23.683Z,1019.69
2022-08-28T01:01:27.406Z,1019.69
2022-08-28T01:02:31.408Z,1019.69
2022-08-28T01:04:11.551Z,1019.69
2022-08-28T01:05:15.123Z,1019.69
2022-08-28T01:06:18.554Z,1019.69
2022-08-28T01:07:53.970Z,1019.69
2022-08-28T01:09:04.688Z,1019.69
2022-08-28T01:10:13.240Z,1019.69
2022-08-28T01:11:50.836Z,1019.69
2022-08-28T01:12:54.277Z,1019.69
2022-08-28T01:13:57.744Z,1019.69
2022-08-28T01:15:37.583Z,1019.69
2022-08-28T01:16:45.857Z,1019.69
2022-08-28T01:17:54.389Z,1019.69
2022-08-28T01:19:35.883Z,1019.69
2022-08-28T01:20:39.169Z,1019.69
2022-08-28T01:21:42.573Z,1019.69
2022-08-28T01:23:17.910Z,1019.69
2022-08-28T01:24:21.349Z,1019.69
2022-08-28T01:25:24.945Z,1019.69
2022-08-28T01:27:09.237Z,1019.69
2022-08-28T01:28:16.146Z,1019.69
2022-08-28T01:29:19.640Z,1019.69
2022-08-28T01:30:55.307Z,1019.69
2022-08-28T01:31:59.276Z,1019.69
2022-08-28T01:33:04.750Z,1019.69
2022-08-28T01:34:47.961Z,1019.69
2022-08-28T01:35:51.230Z,1019.69
2022-08-28T01:36:54.554Z,1019.69
2022-08-28T01:38:38.440Z,1019.69
2022-08-28T01:39:42.870Z,1019.69
2022-08-28T01:40:46.621Z,1019.69
2022-08-28T01:42:23.120Z,1019.69
2022-08-28T01:43:26.625Z,1019.69
2022-08-28T01:44:30.017Z,1019.69
2022-08-28T01:46:05.956Z,1019.69
2022-08-28T01:47:09.779Z,1019.69
2022-08-28T01:48:13.288Z,1019.69
2022-08-28T01:49:49.000Z,1019.69
2022-08-28T01:50:52.352Z,1019.69
2022-08-28T01:51:57.968Z,1019.69
2022-08-28T01:53:45.293Z,1019.69
2022-08-28T01:54:50.645Z,1019.69
2022-08-28T01:55:57.308Z,1019.69
2022-08-28T01:57:34.576Z,1019.69
2022-08-28T01:58:43.910Z,1019.69
2022-08-28T01:59:47.831Z,1019.69
2022-08-28T02:00:23.114Z,1019.69
2022-08-28T02:01:26.717Z,1019.69
2022-08-28T02:02:30.404Z,1019.69
2022-08-28T02:04:05.855Z,1019.69
2022-08-28T02:05:18.321Z,1019.69
2022-08-28T02:06:21.784Z,1019.69
2022-08-28T02:07:57.435Z,1019.69
2022-08-28T02:09:01.635Z,1019.69
2022-08-28T02:10:12.027Z,1019.69
2022-08-28T02:11:52.642Z,1019.69
2022-08-28T02:12:55.856Z,1019.69
2022-08-28T02:14:06.381Z,1019.69
2022-08-28T02:15:42.099Z,1019.69
2022-08-28T02:16:45.829Z,1019.69
2022-08-28T02:17:49.198Z,1019.69
2022-08-28T02:19:24.623Z,1019.69
2022-08-28T02:20:27.963Z,1019.69
2022-08-28T02:21:31.357Z,1019.69
2022-08-28T02:23:06.705Z,1019.69
2022-08-28T02:24:09.981Z,1019.69
2022-08-28T02:25:13.461Z,1019.69
2022-08-28T02:26:48.791Z,1019.69
2022-08-28T02:27:52.111Z,1019.69
2022-08-28T02:28:55.678Z,1019.69
2022-08-28T02:30:31.095Z,1019.69
2022-08-28T02:31:35.135Z,1019.69
2022-08-28T02:32:38.434Z,1019.69
2022-08-28T02:34:14.412Z,1019.69
2022-08-28T02:35:23.523Z,1019.69
2022-08-28T02:36:26.837Z,1019.69
2022-08-28T02:38:02.110Z,1019.69
2022-08-28T02:39:09.283Z,1019.69
2022-08-28T02:40:12.914Z,1019.69
2022-08-28T02:41:50.669Z,1019.69
2022-08-28T02:42:54.221Z,1019.69
2022-08-28T02:43:57.596Z,1019.69
2022-08-28T02:45:33.122Z,1019.69
2022-08-28T02:46:36.984Z,1019.69
2022-08-28T02:47:40.965Z,1019.69
2022-08-28T02:49:16.796Z,1019.69
2022-08-28T02:50:28.270Z,1019.69
2022-08-28T02:51:31.473Z,1019.69
2022-08-28T02:53:06.745Z,1019.69
2022-08-28T02:54:10.058Z,1019.69
2022-08-28T02:55:16.215Z,1019.69
2022-08-28T02:56:57.702Z,1019.69
2022-08-28T02:58:00.981Z,1019.69
2022-08-28T02:59:07.971Z,1019.69
2022-08-28T03:00:24.036Z,1019.69
2022-08-28T03:01:27.670Z,1019.69
2022-08-28T03:02:31.763Z,1019.69
2022-08-28T03:04:07.459Z,1019.69
2022-08-28T03:05:10.776Z,1019.69
2022-08-28T03:06:14.166Z,1019.69
2022-08-28T03:07:49.789Z,1019.69
2022-08-28T03:08:53.388Z,1019.69
2022-08-28T03:09:56.829Z,1019.69
2022-08-28T03:11:32.989Z,1019.69
2022-08-28T03:12:36.281Z,1019.69
2022-08-28T03:13:39.707Z,1019.69
2022-08-28T03:15:15.218Z,1019.69
2022-08-28T03:16:18.571Z,1019.69
2022-08-28T03:17:22.430Z,1019.69
2022-08-28T03:19:04.914Z,1019.69
2022-08-28T03:20:08.267Z,1019.69
2022-08-28T03:21:11.648Z,1019.69
2022-08-28T03:22:50.030Z,1019.69
2022-08-28T03:23:53.507Z,1019.69
2022-08-28T03:25:01.401Z,1019.69
2022-08-28T03:26:36.780Z,1019.69
2022-08-28T03:27:40.167Z,1019.69
2022-08-28T03:28:44.773Z,1019.69
2022-08-28T03:30:23.764Z,1019.69
2022-08-28T03:31:27.544Z,1019.69
2022-08-28T03:32:35.068Z,1019.69
2022-08-28T03:34:10.443Z,1019.69
2022-08-28T03:35:13.829Z,1019.69
2022-08-28T03:36:17.115Z,1019.69
2022-08-28T03:37:54.457Z,1019.69
2022-08-28T03:38:58.197Z,1019.69
2022-08-28T03:40:01.827Z,1019.69
2022-08-28T03:41:37.861Z,1019.69
2022-08-28T03:42:43.851Z,1019.69
2022-08-28T03:43:59.011Z,1019.69
2022-08-28T03:45:34.444Z,1019.69
2022-08-28T03:46:37.992Z,1019.69
2022-08-28T03:47:43.880Z,1019.69
2022-08-28T03:49:25.442Z,1019.69
2022-08-28T03:50:34.117Z,1019.69
2022-08-28T03:51:41.273Z,1019.69
2022-08-28T03:53:16.921Z,1019.69
2022-08-28T03:54:23.149Z,1019.69
2022-08-28T03:55:27.281Z,1019.69
2022-08-28T03:57:02.759Z,1019.69
2022-08-28T03:58:06.241Z,1019.69
2022-08-28T03:59:16.994Z,1019.69
2022-08-28T04:00:23.860Z,1019.69
2022-08-28T04:01:27.686Z,1019.69
2022-08-28T04:02:31.673Z,1019.69
2022-08-28T04:04:07.446Z,1019.69
2022-08-28T04:05:52.188Z,1019.69
2022-08-28T04:06:55.796Z,1019.69
2022-08-28T04:07:59.285Z,1019.69
2022-08-28T04:09:35.114Z,1019.69
2022-08-28T04:10:38.630Z,1019.69
2022-08-28T04:11:42.185Z,1019.69
2022-08-28T04:13:21.877Z,1019.69
2022-08-28T04:14:25.417Z,1019.69
2022-08-28T04:15:28.940Z,1019.69
2022-08-28T04:17:07.519Z,1019.69
2022-08-28T04:18:11.225Z,1019.69
2022-08-28T04:19:15.295Z,1019.69
2022-08-28T04:20:52.380Z,1019.69
2022-08-28T04:21:55.929Z,1019.69
2022-08-28T04:23:01.063Z,1019.69
2022-08-28T04:24:36.735Z,1019.69
2022-08-28T04:25:40.352Z,1019.69
2022-08-28T04:26:43.913Z,1019.69
2022-08-28T04:28:19.783Z,1019.69
2022-08-28T04:29:23.326Z,1019.69
2022-08-28T04:30:26.785Z,1019.69
2022-08-28T04:32:02.793Z,1019.69
2022-08-28T04:33:06.632Z,1019.69
2022-08-28T04:34:10.211Z,1019.69
2022-08-28T04:35:46.036Z,1019.69
2022-08-28T04:36:49.703Z,1019.69
2022-08-28T04:37:55.523Z,1019.69
2022-08-28T04:39:41.639Z,1019.69
2022-08-28T04:40:45.521Z,1019.69
2022-08-28T04:41:51.047Z,1019.69
2022-08-28T04:43:26.710Z,1019.69
2022-08-28T04:44:30.234Z,1019.69
2022-08-28T04:45:33.887Z,1019.69
2022-08-28T04:47:12.038Z,1019.69
2022-08-28T04:48:25.074Z,1019.69
2022-08-28T04:49:31.652Z,1019.69
2022-08-28T04:51:07.462Z,1019.69
2022-08-28T04:52:11.051Z,1019.69
2022-08-28T04:53:14.647Z,1019.69
2022-08-28T04:54:50.366Z,1019.69
2022-08-28T04:56:05.508Z,1019.69
2022-08-28T04:57:12.334Z,1019.69
2022-08-28T04:58:54.343Z,1019.69
2022-08-28T04:59:57.909Z,1019.69
2022-08-28T05:00:24.159Z,1019.69
2022-08-28T05:01:28.013Z,1019.69
2022-08-28T05:02:31.954Z,1019.69
2022-08-28T05:04:07.725Z,1019.69
2022-08-28T05:05:11.251Z,1019.69
2022-08-28T05:06:16.250Z,1019.69
2022-08-28T05:07:56.421Z,1019.69
2022-08-28T05:09:00.120Z,1019.69
2022-08-28T05:10:03.638Z,1019.69
2022-08-28T05:11:45.324Z,1019.69
2022-08-28T05:12:48.852Z,1019.69
2022-08-28T05:13:52.194Z,1019.69
2022-08-28T05:15:34.722Z,1019.69
2022-08-28T05:16:38.498Z,1019.69
2022-08-28T05:17:43.655Z,1019.69
2022-08-28T05:19:19.051Z,1019.69
2022-08-28T05:20:22.478Z,1019.69
2022-08-28T05:21:25.970Z,1019.69
2022-08-28T05:23:02.630Z,1019.69
2022-08-28T05:24:08.552Z,1019.69
2022-08-28T05:25:12.057Z,1019.69
2022-08-28T05:26:54.518Z,1019.69
2022-08-28T05:27:58.042Z,1019.69
2022-08-28T05:29:04.264Z,1019.69
2022-08-28T05:30:48.287Z,1019.69
2022-08-28T05:31:52.300Z,1019.69
2022-08-28T05:32:55.915Z,1019.69
2022-08-28T05:34:32.033Z,1019.69
2022-08-28T05:35:35.485Z,1019.69
2022-08-28T05:36:44.384Z,1019.69
2022-08-28T05:38:20.876Z,1019.69
2022-08-28T05:39:24.245Z,1019.69
2022-08-28T05:40:27.837Z,1019.69
2022-08-28T05:42:04.639Z,1019.69
2022-08-28T05:43:09.047Z,1019.69
2022-08-28T05:44:12.510Z,1019.69
2022-08-28T05:45:52.828Z,1019.69
2022-08-28T05:46:58.199Z,1019.69
2022-08-28T05:48:01.736Z,1019.69
2022-08-28T05:49:37.663Z,1019.69
2022-08-28T05:50:47.466Z,1019.69
2022-08-28T05:51:55.113Z,1019.69
2022-08-28T05:53:34.567Z,1019.69
2022-08-28T05:54:40.577Z,1019.69
2022-08-28T05:55:44.064Z,1019.69
2022-08-28T05:57:22.200Z,1019.69
2022-08-28T05:58:25.924Z,1019.69
2022-08-28T05:59:29.438Z,1019.69
2022-08-28T06:00:23.785Z,1019.69
2022-08-28T06:01:27.351Z,1019.69
2022-08-28T06:02:31.225Z,1019.69
2022-08-28T06:04:09.262Z,1019.69
2022-08-28T06:05:13.366Z,1019.69
2022-08-28T06:06:16.679Z,1019.69
2022-08-28T06:07:52.203Z,1019.69
2022-08-28T06:09:10.267Z,1019.69
2022-08-28T06:10:22.263Z,1019.69
2022-08-28T06:12:03.438Z,1019.69
2022-08-28T06:13:10.977Z,1019.69
2022-08-28T06:14:14.795Z,1019.69
2022-08-28T06:15:54.897Z,1019.69
2022-08-28T06:17:00.377Z,1019.69
2022-08-28T06:18:09.997Z,1019.69
2022-08-28T06:19:50.815Z,1019.69
2022-08-28T06:20:54.138Z,1019.69
2022-08-28T06:21:57.533Z,1019.69
2022-08-28T06:23:37.570Z,1019.69
2022-08-28T06:24:41.760Z,1019.69
2022-08-28T06:25:45.258Z,1019.69
2022-08-28T06:27:21.460Z,1019.69
2022-08-28T06:28:25.376Z,1019.69
2022-08-28T06:29:32.357Z,1019.69
2022-08-28T06:31:39.582Z,1019.69
2022-08-28T06:32:43.490Z,1019.69
2022-08-28T06:33:47.004Z,1019.69
2022-08-28T06:35:22.691Z,1019.69
2022-08-28T06:36:26.221Z,1019.69
2022-08-28T06:37:29.722Z,1019.69
2022-08-28T06:39:05.400Z,1019.69
2022-08-28T06:40:09.222Z,1019.69
2022-08-28T06:41:13.183Z,1019.69
2022-08-28T06:42:48.985Z,1019.69
2022-08-28T06:43:52.430Z,1019.69
2022-08-28T06:44:55.842Z,1019.69
2022-08-28T06:46:32.066Z,1019.69
2022-08-28T06:47:36.311Z,1019.69
2022-08-28T06:48:41.322Z,1019.69
2022-08-28T06:50:17.350Z,1019.69
2022-08-28T06:51:23.116Z,1019.69
2022-08-28T06:52:29.727Z,1019.69
2022-08-28T06:54:07.623Z,1019.69
2022-08-28T06:55:17.464Z,1019.69
2022-08-28T06:56:32.733Z,1019.69
2022-08-28T06:58:08.456Z,1019.69
2022-08-28T06:59:12.226Z,1019.69
2022-08-28T07:00:23.423Z,1019.69
2022-08-28T07:01:27.267Z,1019.69
2022-08-28T07:02:34.206Z,1019.69
2022-08-28T07:04:10.095Z,1019.69
2022-08-28T07:05:13.509Z,1019.69
2022-08-28T07:06:16.833Z,1019.69
2022-08-28T07:07:52.783Z,1019.69
2022-08-28T07:08:56.094Z,1019.69
2022-08-28T07:09:59.541Z,1019.69
2022-08-28T07:11:37.977Z,1019.69
2022-08-28T07:12:42.219Z,1019.69
2022-08-28T07:13:45.712Z,1019.69
2022-08-28T07:15:23.996Z,1019.69
2022-08-28T07:16:34.089Z,1019.69
2022-08-28T07:17:38.359Z,1019.69
2022-08-28T07:19:16.182Z,1019.69
2022-08-28T07:20:19.694Z,1019.69
2022-08-28T07:21:26.234Z,1019.69
2022-08-28T07:23:10.707Z,1019.69
2022-08-28T07:24:14.413Z,1019.69
2022-08-28T07:25:17.869Z,1019.69
2022-08-28T07:26:54.205Z,1019.69
2022-08-28T07:28:03.309Z,1019.69
2022-08-28T07:29:22.015Z,1019.69
2022-08-28T07:30:57.903Z,1019.69
2022-08-28T07:32:01.934Z,1019.69
2022-08-28T07:33:05.252Z,1019.69
2022-08-28T07:34:46.501Z,1019.69
2022-08-28T07:35:51.191Z,1019.69
2022-08-28T07:37:02.413Z,1019.69
2022-08-28T07:38:44.559Z,1019.69
2022-08-28T07:39:48.748Z,1019.69
2022-08-28T07:40:54.039Z,1019.69
2022-08-28T07:42:31.899Z,1019.69
2022-08-28T07:43:38.933Z,1019.69
2022-08-28T07:44:42.468Z,1019.69
2022-08-28T07:46:19.141Z,1019.69
2022-08-28T07:47:22.765Z,1019.69
2022-08-28T07:48:27.086Z,1019.69
2022-08-28T07:50:02.628Z,1019.69
2022-08-28T07:51:06.139Z,1019.69
2022-08-28T07:52:09.474Z,1019.69
2022-08-28T07:53:48.111Z,1019.69
2022-08-28T07:54:51.482Z,1019.69
2022-08-28T07:55:54.699Z,1019.69
2022-08-28T07:57:34.350Z,1019.69
2022-08-28T07:58:39.295Z,1019.69
2022-08-28T07:59:48.613Z,1019.69
2022-08-28T08:00:24.352Z,1019.69
2022-08-28T08:01:28.010Z,1019.69
2022-08-28T08:02:34.337Z,1019.69
2022-08-28T08:04:13.377Z,1019.69
2022-08-28T08:05:20.143Z,1019.69
2022-08-28T08:06:23.602Z,1019.69
2022-08-28T08:08:04.639Z,1019.69
2022-08-28T08:09:08.114Z,1019.69
2022-08-28T08:10:11.421Z,1019.69
2022-08-28T08:12:03.596Z,1019.69
2022-08-28T08:13:08.497Z,1019.69
2022-08-28T08:14:12.242Z,1019.69
2022-08-28T08:15:48.002Z,1019.69
2022-08-28T08:16:51.842Z,1019.69
2022-08-28T08:17:59.313Z,1019.69
2022-08-28T08:19:37.228Z,1019.69
2022-08-28T08:20:40.803Z,1019.69
2022-08-28T08:21:44.238Z,1019.69
2022-08-28T08:23:25.378Z,1019.69
2022-08-28T08:24:31.538Z,1019.69
2022-08-28T08:25:39.217Z,1019.69
2022-08-28T08:27:14.809Z,1019.69
2022-08-28T08:28:18.516Z,1019.69
2022-08-28T08:29:21.882Z,1019.69
2022-08-28T08:30:57.354Z,1019.69
2022-08-28T08:32:00.996Z,1019.69
2022-08-28T08:33:06.005Z,1019.69
2022-08-28T08:34:41.788Z,1019.69
2022-08-28T08:35:45.249Z,1019.69
2022-08-28T08:36:48.618Z,1019.69
2022-08-28T08:38:24.917Z,1019.69
2022-08-28T08:39:31.759Z,1019.69
2022-08-28T08:40:36.435Z,1019.69
2022-08-28T08:42:12.441Z,1019.69
2022-08-28T08:43:15.898Z,1019.69
2022-08-28T08:44:19.350Z,1021.46
2022-08-28T08:46:04.149Z,1021.44
2022-08-28T08:47:13.832Z,1021.44
2022-08-28T08:48:22.215Z,1021.41
2022-08-28T08:49:57.619Z,1021.44
2022-08-28T08:51:00.836Z,1021.44
2022-08-28T08:52:04.139Z,1021.37
2022-08-28T08:53:39.717Z,1021.41
2022-08-28T08:54:43.143Z,1021.41
2022-08-28T08:55:51.541Z,1021.41
2022-08-28T08:57:32.788Z,1021.39
2022-08-28T08:58:41.202Z,1021.39
2022-08-28T08:59:44.594Z,1021.37
2022-08-28T09:00:27.509Z,1021.37
2022-08-28T09:01:31.069Z,1021.40
2022-08-28T09:02:42.990Z,1021.35
2022-08-28T09:04:21.792Z,1021.41
2022-08-28T09:05:27.347Z,1021.32
2022-08-28T09:06:30.645Z,1021.39
2022-08-28T09:08:06.444Z,1021.37
2022-08-28T09:09:12.160Z,1021.33
2022-08-28T09:10:15.864Z,1021.41
2022-08-28T09:11:57.436Z,1021.35
2022-08-28T09:13:00.976Z,1021.36
2022-08-28T09:14:04.285Z,1021.33
2022-08-28T09:15:56.268Z,1021.33
2022-08-28T09:16:59.879Z,1021.33
2022-08-28T09:18:03.345Z,1021.33
2022-08-28T09:19:39.317Z,1021.35
2022-08-28T09:20:44.928Z,1021.34
2022-08-28T09:21:48.881Z,1021.34
2022-08-28T09:23:25.584Z,1021.34
2022-08-28T09:24:34.755Z,1021.38
2022-08-28T09:25:39.209Z,1021.35
2022-08-28T09:27:25.862Z,1021.41
2022-08-28T09:28:31.727Z,1021.47
2022-08-28T09:29:36.636Z,1021.44
2022-08-28T09:31:12.845Z,1021.42
2022-08-28T09:32:18.339Z,1021.43
2022-08-28T09:33:22.136Z,1021.47
2022-08-28T09:35:00.426Z,1021.40
2022-08-28T09:36:06.433Z,1021.47
2022-08-28T09:37:09.885Z,1021.46
2022-08-28T09:38:49.368Z,1021.42
2022-08-28T09:39:57.079Z,1021.37
2022-08-28T09:41:00.883Z,1021.38
2022-08-28T09:42:36.262Z,1021.38
2022-08-28T09:43:39.924Z,1021.39
2022-08-28T09:44:46.256Z,1021.42
2022-08-28T09:46:34.206Z,1021.46
2022-08-28T09:47:40.525Z,1021.40
2022-08-28T09:48:49.959Z,1021.41
2022-08-28T09:50:25.487Z,1021.42
2022-08-28T09:51:28.845Z,1021.36
2022-08-28T09:52:36.693Z,1021.37
2022-08-28T09:54:12.056Z,1021.34
2022-08-28T09:55:15.601Z,1021.34
2022-08-28T09:56:18.891Z,1021.35
2022-08-28T09:57:54.801Z,1021.40
2022-08-28T09:59:01.987Z,1021.39
2022-08-28T10:00:23.608Z,1021.40
2022-08-28T10:01:27.174Z,1021.39
2022-08-28T10:02:31.562Z,1021.40
2022-08-28T10:04:07.659Z,1021.39
2022-08-28T10:05:12.242Z,1021.38
2022-08-28T10:06:24.474Z,1021.35
2022-08-28T10:08:02.143Z,1021.31
2022-08-28T10:09:05.894Z,1021.23
2022-08-28T10:10:13.301Z,1021.20
2022-08-28T10:11:55.813Z,1021.17
2022-08-28T10:12:59.111Z,1021.17
2022-08-28T10:14:02.485Z,1021.21
2022-08-28T10:15:42.526Z,1021.19
2022-08-28T10:16:46.984Z,1021.25
2022-08-28T10:17:50.348Z,1021.21
2022-08-28T10:19:26.178Z,1021.22
2022-08-28T10:20:30.426Z,1021.22
2022-08-28T10:21:34.760Z,1021.14
2022-08-28T10:23:12.497Z,1021.19
2022-08-28T10:24:26.849Z,1021.20
2022-08-28T10:25:31.137Z,1021.18
2022-08-28T10:27:10.118Z,1021.15
2022-08-28T10:28:13.680Z,1021.19
2022-08-28T10:29:17.407Z,1021.19
2022-08-28T10:31:00.376Z,1021.15
2022-08-28T10:32:04.078Z,1021.16
2022-08-28T10:33:07.391Z,1021.20
2022-08-28T10:34:42.721Z,1021.19
2022-08-28T10:35:46.101Z,1021.17
2022-08-28T10:36:49.408Z,1021.16
2022-08-28T10:38:25.272Z,1021.19
2022-08-28T10:39:28.605Z,1021.22
2022-08-28T10:40:32.290Z,1021.22
2022-08-28T10:42:07.868Z,1021.28
2022-08-28T10:43:22.176Z,1021.28
2022-08-28T10:44:26.305Z,1021.26
2022-08-28T10:46:02.065Z,1021.28
2022-08-28T10:47:05.717Z,1021.32
2022-08-28T10:48:12.056Z,1021.31
2022-08-28T10:49:47.608Z,1021.32
2022-08-28T10:50:51.036Z,1021.27
2022-08-28T10:51:57.027Z,1021.32
2022-08-28T10:53:34.563Z,1021.37
2022-08-28T10:54:38.032Z,1021.30
2022-08-28T10:55:42.397Z,1021.37
2022-08-28T10:57:17.902Z,1021.31
2022-08-28T10:58:36.650Z,1021.30
2022-08-28T10:59:48.187Z,1021.25
2022-08-28T11:00:24.298Z,1021.30
2022-08-28T11:01:28.128Z,1021.29
2022-08-28T11:02:32.195Z,1021.30
2022-08-28T11:04:36.997Z,1021.29
2022-08-28T11:05:53.479Z,1021.25
2022-08-28T11:06:57.407Z,1021.19
2022-08-28T11:08:34.304Z,1021.23
2022-08-28T11:09:37.687Z,1021.27
2022-08-28T11:10:41.082Z,1021.25
2022-08-28T11:12:16.707Z,1021.29
2022-08-28T11:13:20.549Z,1021.31
2022-08-28T11:14:23.936Z,1021.29
2022-08-28T11:16:12.770Z,1021.14
2022-08-28T11:17:20.130Z,1021.26
2022-08-28T11:18:25.252Z,1021.17
2022-08-28T11:20:04.024Z,1021.17
2022-08-28T11:21:07.547Z,1021.21
2022-08-28T11:22:10.985Z,1021.17
2022-08-28T11:23:50.946Z,1021.17
2022-08-28T11:25:01.776Z,1021.14
2022-08-28T11:26:18.825Z,1021.22
2022-08-28T11:27:57.833Z,1021.22
2022-08-28T11:29:01.337Z,1021.21
2022-08-28T11:30:04.879Z,1021.23
2022-08-28T11:31:41.344Z,1021.20
2022-08-28T11:32:52.539Z,1021.19
2022-08-28T11:33:55.896Z,1021.10
2022-08-28T11:35:31.568Z,1021.11
2022-08-28T11:36:35.012Z,1021.07
2022-08-28T11:37:38.561Z,1021.17
2022-08-28T11:39:17.724Z,1021.21
2022-08-28T11:40:21.512Z,1021.16
2022-08-28T11:41:25.203Z,1021.21
2022-08-28T11:43:02.512Z,1021.20
2022-08-28T11:44:08.455Z,1021.20
2022-08-28T11:45:11.768Z,1021.20
2022-08-28T11:46:47.851Z,1021.12
2022-08-28T11:47:51.237Z,1021.12
2022-08-28T11:48:54.816Z,1021.19
2022-08-28T11:50:30.841Z,1021.16
2022-08-28T11:51:34.106Z,1021.18
2022-08-28T11:52:38.364Z,1021.19
2022-08-28T11:54:14.808Z,1021.19
2022-08-28T11:55:18.353Z,1021.20
2022-08-28T11:56:37.471Z,1021.28
2022-08-28T11:59:19.587Z,1021.29
2022-08-28T12:00:23.783Z,1021.28
2022-08-28T12:01:27.297Z,1021.23
2022-08-28T12:02:30.842Z,1021.24
2022-08-28T12:04:13.795Z,1021.21
2022-08-28T12:05:17.420Z,1021.24
2022-08-28T12:06:20.850Z,1021.20
2022-08-28T12:07:56.283Z,1021.22
2022-08-28T12:08:59.760Z,1021.21
2022-08-28T12:10:08.702Z,1021.26
2022-08-28T12:11:46.293Z,1021.19
2022-08-28T12:12:51.775Z,1021.14
2022-08-28T12:13:55.220Z,1021.13
2022-08-28T12:15:31.548Z,1021.11
2022-08-28T12:16:35.698Z,1021.10
2022-08-28T12:17:42.843Z,1021.11
2022-08-28T12:19:18.284Z,1021.15
2022-08-28T12:20:27.437Z,1021.14
2022-08-28T12:21:30.868Z,1021.15
2022-08-28T12:23:06.231Z,1021.25
2022-08-28T12:24:15.768Z,1021.27
2022-08-28T12:25:22.752Z,1021.21
2022-08-28T12:26:58.236Z,1021.23
2022-08-28T12:28:01.592Z,1021.25
2022-08-28T12:29:10.723Z,1021.23
2022-08-28T12:30:51.815Z,1021.24
2022-08-28T12:31:56.560Z,1021.19
2022-08-28T12:32:59.723Z,1021.21
2022-08-28T12:34:35.053Z,1021.22
2022-08-28T12:35:43.721Z,1021.19
2022-08-28T12:36:51.915Z,1021.22
2022-08-28T12:38:44.780Z,1021.27
2022-08-28T12:39:48.222Z,1021.26
2022-08-28T12:40:51.854Z,1021.20
2022-08-28T12:42:27.435Z,1021.21
2022-08-28T12:43:31.154Z,1021.17
2022-08-28T12:44:44.487Z,1021.21
2022-08-28T12:46:31.576Z,1021.10
2022-08-28T12:47:35.335Z,1021.18
2022-08-28T12:48:38.686Z,1021.24
2022-08-28T12:50:14.187Z,1021.20
2022-08-28T12:51:17.696Z,1021.14
2022-08-28T12:52:22.864Z,1021.17
2022-08-28T12:53:58.746Z,1021.16
2022-08-28T12:55:02.155Z,1021.12
2022-08-28T12:56:10.791Z,1021.11
2022-08-28T12:57:46.414Z,1021.10
2022-08-28T12:58:49.816Z,1021.07
2022-08-28T12:59:53.125Z,1021.06
2022-08-28T13:00:23.577Z,1021.06
2022-08-28T13:01:27.688Z,1021.06
2022-08-28T13:02:31.977Z,1021.07
2022-08-28T13:04:16.152Z,1021.03
2022-08-28T13:05:20.828Z,1021.03
2022-08-28T13:06:24.144Z,1021.01
2022-08-28T13:07:59.764Z,1021.01
2022-08-28T13:09:03.033Z,1021.02
2022-08-28T13:10:06.621Z,1021.12
2022-08-28T13:11:42.053Z,1020.97
2022-08-28T13:13:11.755Z,1021.00
2022-08-28T13:14:16.292Z,1020.99
2022-08-28T13:15:51.713Z,1021.03
2022-08-28T13:16:55.438Z,1021.02
2022-08-28T13:17:58.992Z,1021.01
2022-08-28T13:19:34.573Z,1020.98
2022-08-28T13:20:37.922Z,1021.00
2022-08-28T13:21:45.949Z,1020.97
2022-08-28T13:23:21.555Z,1021.01
2022-08-28T13:24:24.883Z,1021.00
2022-08-28T13:25:28.381Z,1020.99
2022-08-28T13:27:04.051Z,1020.96
2022-08-28T13:28:07.299Z,1020.98
2022-08-28T13:29:10.689Z,1020.97
2022-08-28T13:30:53.235Z,1020.87
2022-08-28T13:31:58.358Z,1020.84
2022-08-28T13:33:01.509Z,1020.93
2022-08-28T13:34:37.313Z,1020.89
2022-08-28T13:35:45.995Z,1020.90
2022-08-28T13:36:49.613Z,1020.88
2022-08-28T13:38:38.897Z,1020.92
2022-08-28T13:39:42.229Z,1020.91
2022-08-28T13:41:08.806Z,1020.87
2022-08-28T13:42:46.121Z,1020.91
2022-08-28T13:43:49.402Z,1020.97
2022-08-28T13:44:52.714Z,1020.94
2022-08-28T13:46:41.729Z,1020.84
2022-08-28T13:47:46.093Z,1020.91
2022-08-28T13:48:52.214Z,1020.81
2022-08-28T13:50:28.925Z,1020.87
2022-08-28T13:51:33.814Z,1020.84
2022-08-28T13:52:43.640Z,1020.84
2022-08-28T13:54:25.609Z,1020.89
2022-08-28T13:55:38.085Z,1020.80
2022-08-28T13:56:41.439Z,1020.84
2022-08-28T13:58:17.280Z,1020.86
2022-08-28T13:59:20.731Z,1020.82
2022-08-28T14:00:24.134Z,1020.79
2022-08-28T14:01:48.299Z,1020.78
2022-08-28T14:02:52.770Z,1020.73
2022-08-28T14:04:28.254Z,1020.70
2022-08-28T14:05:31.633Z,1020.78
2022-08-28T14:06:43.006Z,1020.72
2022-08-28T14:08:18.641Z,1020.77
2022-08-28T14:09:23.658Z,1020.74
2022-08-28T14:10:28.164Z,1020.71
2022-08-28T14:12:05.159Z,1020.71
2022-08-28T14:13:19.259Z,1020.68
2022-08-28T14:14:22.634Z,1020.69
2022-08-28T14:15:58.016Z,1020.74
2022-08-28T14:17:01.780Z,1020.69
2022-08-28T14:18:05.216Z,1020.69
2022-08-28T14:19:40.952Z,1020.70
2022-08-28T14:20:45.025Z,1020.67
2022-08-28T14:21:48.595Z,1020.64
2022-08-28T14:23:24.347Z,1020.67
2022-08-28T14:24:30.653Z,1020.68
2022-08-28T14:25:38.963Z,1020.76
2022-08-28T14:27:14.995Z,1020.74
2022-08-28T14:28:18.415Z,1020.75
2022-08-28T14:29:21.949Z,1020.79
2022-08-28T14:30:58.000Z,1020.81
2022-08-28T14:32:12.969Z,1020.77
2022-08-28T14:33:16.707Z,1020.77
2022-08-28T14:35:01.798Z,1020.80
2022-08-28T14:36:05.169Z,1020.78
2022-08-28T14:37:08.629Z,1020.83
2022-08-28T14:38:46.061Z,1020.82
2022-08-28T14:39:58.283Z,1020.75
2022-08-28T14:41:06.238Z,1020.79
2022-08-28T14:42:41.736Z,1020.75
2022-08-28T14:43:45.142Z,1020.73
2022-08-28T14:44:48.598Z,1020.75
2022-08-28T14:46:24.659Z,1020.74
2022-08-28T14:47:28.386Z,1020.78
2022-08-28T14:48:31.893Z,1020.73
2022-08-28T14:50:07.954Z,1020.83
2022-08-28T14:51:14.209Z,1020.83
2022-08-28T14:52:17.599Z,1020.81
2022-08-28T14:53:53.533Z,1020.84
2022-08-28T14:54:56.890Z,1020.86
2022-08-28T14:56:05.296Z,1020.86
2022-08-28T14:57:40.961Z,1020.86
2022-08-28T14:58:48.928Z,1020.83
2022-08-28T14:59:52.287Z,1020.88
2022-08-28T15:00:27.900Z,1020.88
2022-08-28T15:01:45.462Z,1020.86
2022-08-28T15:02:48.875Z,1020.86
2022-08-28T15:04:30.511Z,1020.84
2022-08-28T15:05:33.945Z,1020.80
2022-08-28T15:06:37.213Z,1020.79
2022-08-28T15:08:12.887Z,1020.75
2022-08-28T15:09:16.277Z,1020.72
2022-08-28T15:10:19.574Z,1020.78
2022-08-28T15:11:56.283Z,1020.71
2022-08-28T15:13:04.568Z,1020.70
2022-08-28T15:14:18.065Z,1020.67